Time;durP1;ratioP1;P1;durP2;ratioP2;P2;SDS_P1;SDS_P2;PMS_P1;PMS_P2;Temp;Humidity;BMP_temperature;BMP_pressure;BME280_temperature;BME280_humidity;BME280_pressure;Samples;Min_cycle;Max_cycle;Signal;HPM_P1;HPM_P2
2022/10/10 00:01:26;;;;;;;9.68;7.35;;;20.00;99.90;;;;;;5025462;28;20042;-73
2022/10/10 00:03:54;;;;;;;11.63;7.93;;;20.00;99.90;;;;;;5016751;28;20060;-74
2022/10/10 00:06:23;;;;;;;11.73;7.47;;;19.90;99.90;;;;;;5004593;28;20076;-73
2022/10/10 00:08:52;;;;;;;10.65;7.43;;;20.00;99.90;;;;;;5009686;28;20053;-74
2022/10/10 00:11:23;;;;;;;12.13;8.38;;;20.00;99.90;;;;;;4995805;28;20044;-74
2022/10/10 00:13:51;;;;;;;11.05;7.80;;;20.00;99.90;;;;;;5007706;28;20064;-73
2022/10/10 00:16:19;;;;;;;8.90;6.53;;;19.90;99.90;;;;;;5012988;28;20057;-79
2022/10/10 00:18:47;;;;;;;8.80;6.75;;;19.90;99.90;;;;;;5025091;28;20053;-73
2022/10/10 00:21:15;;;;;;;8.18;6.95;;;19.90;99.90;;;;;;5034165;28;20163;-74
2022/10/10 00:23:43;;;;;;;8.50;6.72;;;19.80;99.90;;;;;;5012283;28;20076;-73
2022/10/10 00:26:10;;;;;;;10.98;7.55;;;19.70;99.90;;;;;;5027758;28;20044;-78
2022/10/10 00:28:42;;;;;;;10.52;7.35;;;19.70;99.90;;;;;;5017323;28;20506;-75
2022/10/10 00:31:10;;;;;;;10.60;7.15;;;19.60;99.90;;;;;;5017589;28;20045;-73
2022/10/10 00:33:38;;;;;;;8.95;7.05;;;19.60;99.90;;;;;;5052082;28;20057;-73
2022/10/10 00:36:08;;;;;;;9.10;6.60;;;19.60;99.90;;;;;;5017480;28;20056;-73
2022/10/10 00:38:36;;;;;;;10.52;7.05;;;19.60;99.90;;;;;;5034446;28;20041;-73
2022/10/10 00:41:04;;;;;;;10.50;7.45;;;19.60;99.90;;;;;;5017395;28;20049;-74
2022/10/10 00:43:34;;;;;;;10.38;8.13;;;19.50;99.90;;;;;;5033887;28;20092;-73
2022/10/10 00:46:01;;;;;;;12.35;8.32;;;19.50;99.90;;;;;;5017283;28;20487;-73
2022/10/10 00:48:41;;;;;;;8.93;7.68;;;19.50;99.90;;;;;;5034166;28;20037;-73
2022/10/10 00:51:13;;;;;;;9.52;7.30;;;19.50;99.90;;;;;;5033055;28;20057;-74
2022/10/10 00:53:49;;;;;;;9.93;8.10;;;19.50;99.90;;;;;;5033850;28;20037;-73
2022/10/10 00:56:21;;;;;;;10.93;8.45;;;19.40;99.90;;;;;;5017168;28;20464;-73
2022/10/10 00:58:52;;;;;;;10.13;8.65;;;19.40;99.90;;;;;;5033309;28;20041;-73
2022/10/10 01:01:20;;;;;;;14.13;9.30;;;19.30;99.90;;;;;;5033262;28;20468;-74
2022/10/10 01:03:48;;;;;;;14.82;9.55;;;19.40;99.90;;;;;;5051539;28;20057;-73
2022/10/10 01:06:16;;;;;;;10.65;7.80;;;19.40;99.90;;;;;;5033935;28;20045;-73
2022/10/10 01:08:44;;;;;;;11.70;9.05;;;19.40;99.90;;;;;;5033041;28;20068;-72
2022/10/10 01:11:46;;;;;;;8.90;7.80;;;19.40;99.90;;;;;;5000828;28;20068;-75
2022/10/10 01:14:50;;;;;;;9.00;7.90;;;19.40;99.90;;;;;;5037082;28;20057;-74
2022/10/10 01:17:25;;;;;;;9.80;7.50;;;19.50;99.90;;;;;;5020727;28;20060;-76
2022/10/10 01:20:12;;;;;;;12.98;7.47;;;19.50;99.90;;;;;;5053490;28;20059;-73
2022/10/10 01:22:58;;;;;;;10.27;8.15;;;19.40;99.90;;;;;;5053353;28;20439;-73
2022/10/10 01:25:52;;;;;;;9.25;7.80;;;19.40;99.90;;;;;;5052945;28;20040;-73
2022/10/10 01:28:35;;;;;;;10.70;8.65;;;19.50;99.90;;;;;;5046051;28;20056;-76
2022/10/10 01:31:06;;;;;;;10.60;7.90;;;19.50;99.90;;;;;;5053746;28;20044;-82
2022/10/10 01:33:54;;;;;;;11.07;7.88;;;19.40;99.90;;;;;;5036781;28;20048;-73
2022/10/10 01:36:35;;;;;;;10.77;7.90;;;19.40;99.90;;;;;;5020192;28;20049;-73
2022/10/10 01:39:16;;;;;;;10.18;7.45;;;19.40;99.90;;;;;;5035916;28;20049;-81
2022/10/10 01:41:57;;;;;;;10.52;7.65;;;19.40;99.90;;;;;;5035850;28;20353;-73
2022/10/10 01:44:25;;;;;;;10.75;7.50;;;19.30;99.90;;;;;;5070535;28;20090;-73
2022/10/10 01:46:53;;;;;;;9.38;7.35;;;19.40;99.90;;;;;;5036215;28;20110;-73
2022/10/10 01:49:27;;;;;;;8.35;6.82;;;19.40;99.90;;;;;;5052977;28;20056;-72
2022/10/10 01:52:11;;;;;;;10.40;7.35;;;19.40;99.90;;;;;;5070701;28;20143;-74
2022/10/10 01:55:03;;;;;;;11.07;7.00;;;19.40;99.90;;;;;;5036283;28;20044;-73
2022/10/10 01:57:58;;;;;;;11.50;8.48;;;19.40;99.90;;;;;;5036168;28;20502;-74
2022/10/10 02:00:25;;;;;;;10.90;7.88;;;19.40;99.90;;;;;;5035583;28;20063;-74
2022/10/10 02:03:12;;;;;;;11.65;8.30;;;19.30;99.90;;;;;;5067549;28;20072;-72
2022/10/10 02:05:49;;;;;;;10.93;8.50;;;19.20;99.90;;;;;;5032682;28;20041;-73
2022/10/10 02:08:26;;;;;;;12.25;8.57;;;19.20;99.90;;;;;;4999490;28;20060;-75
2022/10/10 02:10:59;;;;;;;10.32;7.95;;;19.10;99.90;;;;;;5032902;28;20077;-74
2022/10/10 02:13:45;;;;;;;11.50;7.85;;;19.20;99.90;;;;;;5050098;28;20206;-73
2022/10/10 02:16:17;;;;;;;12.52;8.00;;;19.20;99.90;;;;;;5050466;28;20044;-73
2022/10/10 02:18:46;;;;;;;10.52;9.05;;;19.20;99.90;;;;;;5049971;28;20045;-73
2022/10/10 02:21:14;;;;;;;10.95;8.60;;;19.30;99.90;;;;;;5015139;28;20553;-72
2022/10/10 02:23:46;;;;;;;9.88;8.25;;;19.30;99.90;;;;;;5016111;28;20415;-74
2022/10/10 02:26:16;;;;;;;13.70;7.90;;;19.40;99.90;;;;;;5049731;28;20049;-75
2022/10/10 02:28:54;;;;;;;12.18;9.68;;;19.40;99.90;;;;;;5032669;28;20045;-75
2022/10/10 02:31:39;;;;;;;11.57;8.35;;;19.40;99.90;;;;;;5032073;28;20127;-73
2022/10/10 02:34:15;;;;;;;9.95;8.38;;;19.30;99.90;;;;;;5032360;28;20651;-73
2022/10/10 02:36:48;;;;;;;11.05;9.02;;;19.30;99.90;;;;;;5032324;28;20056;-73
2022/10/10 02:39:18;;;;;;;11.80;8.52;;;19.30;99.90;;;;;;5015272;28;20480;-73
2022/10/10 02:41:48;;;;;;;12.57;8.45;;;19.30;99.90;;;;;;5031696;28;20191;-73
2022/10/10 02:44:16;;;;;;;11.38;8.88;;;19.30;99.90;;;;;;5015596;28;20041;-73
2022/10/10 02:46:44;;;;;;;13.07;9.45;;;19.30;99.90;;;;;;5049620;28;20407;-72
2022/10/10 02:49:12;;;;;;;10.70;8.88;;;19.40;99.90;;;;;;5031254;28;20059;-73
2022/10/10 02:51:40;;;;;;;9.85;8.50;;;19.30;99.90;;;;;;5031670;28;20515;-77
2022/10/10 02:54:08;;;;;;;11.63;9.40;;;19.20;99.90;;;;;;5014589;28;20420;-73
2022/10/10 02:56:35;;;;;;;11.35;8.55;;;19.20;99.90;;;;;;5031689;28;20055;-73
2022/10/10 02:59:03;;;;;;;11.07;8.68;;;19.20;99.90;;;;;;5031652;28;20091;-81
2022/10/10 03:01:31;;;;;;;12.15;9.15;;;19.30;99.90;;;;;;5037329;28;20106;-72
2022/10/10 03:03:59;;;;;;;13.32;9.55;;;19.30;99.90;;;;;;5067559;28;20041;-72
2022/10/10 03:06:27;;;;;;;12.65;8.30;;;19.30;99.90;;;;;;5051959;28;20502;-73
2022/10/10 03:08:54;;;;;;;12.30;8.50;;;19.20;99.90;;;;;;5035061;28;20060;-73
2022/10/10 03:11:22;;;;;;;9.60;8.05;;;19.20;99.90;;;;;;5069245;28;20545;-71
2022/10/10 03:13:50;;;;;;;12.07;9.32;;;19.20;99.90;;;;;;5018009;28;20147;-73
2022/10/10 03:16:18;;;;;;;14.18;7.90;;;19.20;99.90;;;;;;5034349;28;20145;-73
2022/10/10 03:18:45;;;;;;;10.85;8.32;;;19.30;99.90;;;;;;5068700;28;20080;-71
2022/10/10 03:21:13;;;;;;;9.13;7.57;;;19.30;99.90;;;;;;5050131;28;20090;-71
2022/10/10 03:23:41;;;;;;;9.48;7.15;;;19.30;99.90;;;;;;5034718;28;20424;-71
2022/10/10 03:26:09;;;;;;;13.02;9.30;;;19.30;99.90;;;;;;5017099;28;20833;-71
2022/10/10 03:28:38;;;;;;;11.50;8.85;;;19.30;99.90;;;;;;5069047;28;20486;-72
2022/10/10 03:31:06;;;;;;;14.48;8.57;;;19.30;99.90;;;;;;5050953;28;20084;-75
2022/10/10 03:33:34;;;;;;;10.15;8.57;;;19.20;99.90;;;;;;5034796;28;20432;-73
2022/10/10 03:36:02;;;;;;;13.52;8.32;;;19.20;99.90;;;;;;5069042;28;20078;-75
2022/10/10 03:38:30;;;;;;;14.68;9.43;;;19.10;99.90;;;;;;5018348;28;20040;-72
2022/10/10 03:40:58;;;;;;;11.85;9.05;;;19.20;99.90;;;;;;5050798;28;20094;-76
2022/10/10 03:43:26;;;;;;;13.60;7.95;;;19.10;99.90;;;;;;5018386;28;20056;-74
2022/10/10 03:45:53;;;;;;;11.90;9.07;;;19.00;99.90;;;;;;5018120;28;20454;-74
2022/10/10 03:48:21;;;;;;;11.98;8.85;;;19.00;99.90;;;;;;5033987;28;20090;-73
2022/10/10 03:50:49;;;;;;;11.65;8.48;;;19.00;99.90;;;;;;5034717;28;20674;-73
2022/10/10 03:53:17;;;;;;;11.60;9.63;;;19.00;99.90;;;;;;5068439;28;20054;-73
2022/10/10 03:55:44;;;;;;;13.20;10.18;;;19.00;99.90;;;;;;5051161;28;20071;-73
2022/10/10 03:58:12;;;;;;;14.05;10.63;;;19.00;99.90;;;;;;5032233;28;20060;-73
2022/10/10 04:00:40;;;;;;;15.93;9.48;;;19.00;99.90;;;;;;4994631;28;20056;-73
2022/10/10 04:03:08;;;;;;;11.45;9.23;;;19.10;99.90;;;;;;5011441;28;20112;-74
2022/10/10 04:05:38;;;;;;;14.38;9.57;;;19.10;99.90;;;;;;5043977;28;20124;-73
2022/10/10 04:08:05;;;;;;;10.82;9.13;;;19.10;99.90;;;;;;5011385;28;20073;-73
2022/10/10 04:10:33;;;;;;;13.50;9.50;;;19.00;99.90;;;;;;5027813;28;20053;-72
2022/10/10 04:13:01;;;;;;;11.02;9.02;;;19.10;99.90;;;;;;5011631;28;20128;-74
2022/10/10 04:15:30;;;;;;;10.93;8.60;;;19.10;99.90;;;;;;4994878;28;20127;-73
2022/10/10 04:17:58;;;;;;;10.32;8.23;;;19.00;99.90;;;;;;5027204;28;20085;-73
2022/10/10 04:20:27;;;;;;;10.68;8.70;;;19.10;99.90;;;;;;4978602;28;20069;-73
2022/10/10 04:22:54;;;;;;;10.07;8.75;;;19.10;99.90;;;;;;4994930;28;20486;-72
2022/10/10 04:25:22;;;;;;;10.90;8.57;;;19.20;99.90;;;;;;5010661;28;20132;-71
2022/10/10 04:27:50;;;;;;;14.57;9.77;;;19.10;99.90;;;;;;5011643;28;20054;-71
2022/10/10 04:30:18;;;;;;;13.38;8.43;;;19.20;99.90;;;;;;4994906;28;20326;-71
2022/10/10 04:32:46;;;;;;;11.30;9.18;;;19.10;99.90;;;;;;4997128;28;20482;-71
2022/10/10 04:35:14;;;;;;;13.30;9.27;;;19.10;99.90;;;;;;4981663;28;20393;-71
2022/10/10 04:37:41;;;;;;;10.55;8.45;;;19.00;99.90;;;;;;4997565;28;20052;-71
2022/10/10 04:40:09;;;;;;;10.73;8.40;;;19.00;99.90;;;;;;4997677;28;20045;-73
2022/10/10 04:42:37;;;;;;;10.48;7.85;;;18.90;99.90;;;;;;4997900;28;20507;-73
2022/10/10 04:45:06;;;;;;;9.00;8.02;;;18.90;99.90;;;;;;5031736;28;20518;-73
2022/10/10 04:47:33;;;;;;;11.00;8.77;;;18.90;99.90;;;;;;5014282;28;20076;-72
2022/10/10 04:50:01;;;;;;;11.07;8.68;;;18.90;99.90;;;;;;4998072;28;20404;-73
2022/10/10 04:52:29;;;;;;;14.18;8.57;;;18.90;99.90;;;;;;5031200;28;20144;-75
2022/10/10 04:54:57;;;;;;;10.50;7.65;;;18.90;99.90;;;;;;5034172;28;20429;-77
2022/10/10 04:57:25;;;;;;;11.07;8.00;;;19.00;99.90;;;;;;5051342;28;20047;-72
2022/10/10 04:59:52;;;;;;;11.10;8.10;;;19.00;99.90;;;;;;5051838;28;20057;-73
2022/10/10 05:02:20;;;;;;;13.25;9.63;;;18.90;99.90;;;;;;5051758;28;20132;-74
2022/10/10 05:04:48;;;;;;;10.32;7.18;;;19.00;99.90;;;;;;5033845;28;20048;-73
2022/10/10 05:07:16;;;;;;;12.75;8.18;;;19.10;99.90;;;;;;5016787;28;20769;-72
2022/10/10 05:09:44;;;;;;;12.35;7.78;;;19.20;99.90;;;;;;4999976;28;20853;-75
2022/10/10 05:12:12;;;;;;;9.88;7.22;;;19.20;99.90;;;;;;5017205;28;20064;-72
2022/10/10 05:14:39;;;;;;;9.15;7.50;;;19.20;99.90;;;;;;5051605;28;20045;-73
2022/10/10 05:17:08;;;;;;;12.98;7.63;;;19.30;99.90;;;;;;5016979;28;20373;-73
2022/10/10 05:19:36;;;;;;;10.85;8.25;;;19.30;99.90;;;;;;5032884;28;20138;-72
2022/10/10 05:22:04;;;;;;;9.98;7.32;;;19.40;99.90;;;;;;5036932;28;20824;-73
2022/10/10 05:24:32;;;;;;;11.60;7.60;;;19.40;99.90;;;;;;5037242;28;20083;-73
2022/10/10 05:27:00;;;;;;;12.50;7.75;;;19.50;99.90;;;;;;5053890;28;20053;-76
2022/10/10 05:29:28;;;;;;;9.77;6.80;;;19.50;99.90;;;;;;5020441;28;20143;-73
2022/10/10 05:31:56;;;;;;;12.50;7.50;;;19.50;99.90;;;;;;5037372;28;20052;-74
2022/10/10 05:34:24;;;;;;;11.02;7.57;;;19.50;99.90;;;;;;5036539;28;20095;-75
2022/10/10 05:36:51;;;;;;;10.02;7.35;;;19.50;99.90;;;;;;5036787;28;20146;-73
2022/10/10 05:39:19;;;;;;;9.65;7.60;;;19.40;99.90;;;;;;5020208;28;20084;-73
2022/10/10 05:41:47;;;;;;;11.13;8.27;;;19.40;99.90;;;;;;5053326;28;20087;-73
2022/10/10 05:44:14;;;;;;;9.18;7.20;;;19.30;99.90;;;;;;5068653;28;20037;-73
2022/10/10 05:46:42;;;;;;;9.85;7.90;;;19.30;99.90;;;;;;5052174;28;20152;-73
2022/10/10 05:49:10;;;;;;;13.82;8.40;;;19.30;99.90;;;;;;5041142;28;20044;-73
2022/10/10 05:51:38;;;;;;;10.13;8.35;;;19.20;99.90;;;;;;5033055;28;20411;-72
2022/10/10 05:54:06;;;;;;;11.20;7.95;;;19.10;99.90;;;;;;5016255;28;20049;-73
2022/10/10 05:56:34;;;;;;;12.10;9.07;;;19.10;99.90;;;;;;5015969;28;20063;-74
2022/10/10 05:59:02;;;;;;;11.75;9.00;;;19.10;99.90;;;;;;5016641;28;20119;-73
2022/10/10 06:01:30;;;;;;;12.35;9.23;;;19.10;99.90;;;;;;5032133;28;20601;-73
2022/10/10 06:03:58;;;;;;;10.88;8.38;;;19.10;99.90;;;;;;5031726;28;20476;-73
2022/10/10 06:06:26;;;;;;;12.63;9.23;;;19.20;99.90;;;;;;5032250;28;20075;-72
2022/10/10 06:08:53;;;;;;;14.35;8.80;;;19.10;99.90;;;;;;5050329;28;20048;-73
2022/10/10 06:11:22;;;;;;;12.70;9.18;;;19.20;99.90;;;;;;5032635;28;20154;-73
2022/10/10 06:13:53;;;;;;;12.32;9.70;;;19.20;99.90;;;;;;5032977;28;20049;-72
2022/10/10 06:16:23;;;;;;;12.00;8.82;;;19.20;99.90;;;;;;5000217;28;20051;-72
2022/10/10 06:18:52;;;;;;;11.73;8.30;;;19.20;99.90;;;;;;5050483;28;20057;-73
2022/10/10 06:21:20;;;;;;;17.63;7.82;;;19.20;99.90;;;;;;5050313;28;20040;-72
2022/10/10 06:23:48;;;;;;;11.75;8.40;;;19.20;99.90;;;;;;5033148;28;20132;-73
2022/10/10 06:26:16;;;;;;;10.95;8.80;;;19.10;99.90;;;;;;5033306;28;20037;-73
2022/10/10 06:28:44;;;;;;;11.88;8.60;;;19.20;99.90;;;;;;5050321;28;20036;-73
2022/10/10 06:31:12;;;;;;;11.43;7.68;;;19.30;99.90;;;;;;5015832;28;20550;-74
2022/10/10 06:33:44;;;;;;;9.15;7.30;;;19.30;99.90;;;;;;5016618;28;20049;-73
2022/10/10 06:36:14;;;;;;;15.02;7.32;;;19.40;99.90;;;;;;5016863;28;20040;-72
2022/10/10 06:38:43;;;;;;;16.45;7.90;;;19.40;99.90;;;;;;5016335;28;20060;-74
2022/10/10 06:41:11;;;;;;;12.20;9.43;;;19.50;99.90;;;;;;5049178;28;20488;-72
2022/10/10 06:43:40;;;;;;;10.88;8.40;;;19.60;99.90;;;;;;5016313;28;20051;-80
2022/10/10 06:46:09;;;;;;;13.05;9.65;;;19.60;99.90;;;;;;5033003;28;20387;-72
2022/10/10 06:48:37;;;;;;;10.80;8.70;;;19.60;99.90;;;;;;5016217;28;20088;-74
2022/10/10 06:51:08;;;;;;;13.02;9.73;;;19.80;99.90;;;;;;5051167;28;20037;-77
2022/10/10 06:53:36;;;;;;;12.15;10.15;;;19.80;99.90;;;;;;5035048;28;20055;-73
2022/10/10 06:56:04;;;;;;;12.55;10.80;;;19.80;99.90;;;;;;5024439;28;20052;-73
2022/10/10 06:58:32;;;;;;;13.25;9.05;;;19.90;99.90;;;;;;5051430;28;20056;-81
2022/10/10 07:01:02;;;;;;;13.10;8.38;;;20.00;99.90;;;;;;5037761;28;20146;-74
2022/10/10 07:03:30;;;;;;;12.13;9.20;;;20.00;99.90;;;;;;5010615;28;20048;-73
2022/10/10 07:06:00;;;;;;;12.70;9.80;;;19.90;99.90;;;;;;5039429;28;20064;-76
2022/10/10 07:08:29;;;;;;;11.88;8.85;;;20.00;99.90;;;;;;5056639;28;20071;-72
2022/10/10 07:10:57;;;;;;;14.48;9.68;;;20.00;99.90;;;;;;5021546;28;20143;-73
2022/10/10 07:13:25;;;;;;;11.93;9.60;;;20.00;99.90;;;;;;5034395;28;20068;-72
2022/10/10 07:15:52;;;;;;;11.23;8.77;;;20.00;99.90;;;;;;5042970;28;20037;-73
2022/10/10 07:18:20;;;;;;;18.05;11.13;;;20.00;99.90;;;;;;5054326;28;20140;-72
2022/10/10 07:20:48;;;;;;;14.23;10.20;;;20.10;99.90;;;;;;5001762;28;20080;-74
2022/10/10 07:23:16;;;;;;;13.25;10.82;;;20.10;99.90;;;;;;5026515;28;20128;-73
2022/10/10 07:25:45;;;;;;;15.73;10.90;;;20.10;99.90;;;;;;5030407;28;20048;-73
2022/10/10 07:28:14;;;;;;;13.82;11.02;;;20.10;99.90;;;;;;5018613;28;20049;-72
2022/10/10 07:30:45;;;;;;;13.02;10.68;;;20.10;99.90;;;;;;5018703;28;20048;-72
2022/10/10 07:33:14;;;;;;;16.05;11.05;;;20.10;99.90;;;;;;5029232;28;20045;-72
2022/10/10 07:35:42;;;;;;;11.90;8.65;;;20.20;99.90;;;;;;5008220;28;20041;-73
2022/10/10 07:38:10;;;;;;;16.27;10.07;;;20.20;99.90;;;;;;5029992;28;20044;-75
2022/10/10 07:40:40;;;;;;;13.95;10.00;;;20.20;99.90;;;;;;4996502;28;20080;-77
2022/10/10 07:43:07;;;;;;;13.27;9.68;;;20.20;99.90;;;;;;5013323;28;20490;-73
2022/10/10 07:45:36;;;;;;;12.15;8.27;;;20.30;99.90;;;;;;4995958;28;20041;-74
2022/10/10 07:48:04;;;;;;;12.30;9.85;;;20.20;99.90;;;;;;5008525;28;20061;-73
2022/10/10 07:50:32;;;;;;;17.42;9.27;;;20.30;99.90;;;;;;5021165;28;20124;-72
2022/10/10 07:53:00;;;;;;;10.27;9.05;;;20.20;99.90;;;;;;5026399;28;20080;-74
2022/10/10 07:55:27;;;;;;;14.00;9.20;;;20.30;99.90;;;;;;5017114;28;20046;-76
2022/10/10 07:57:56;;;;;;;12.80;9.30;;;20.30;99.90;;;;;;5045431;28;20044;-77
2022/10/10 08:00:24;;;;;;;13.35;9.65;;;20.30;99.90;;;;;;5029126;28;20550;-75
2022/10/10 08:02:52;;;;;;;17.15;10.73;;;20.30;99.90;;;;;;5047386;28;20468;-73
2022/10/10 08:05:19;;;;;;;16.42;10.48;;;20.40;99.90;;;;;;5009511;28;20034;-73
2022/10/10 08:07:47;;;;;;;17.90;10.43;;;20.40;99.90;;;;;;5013255;28;20041;-76
2022/10/10 08:10:15;;;;;;;12.05;9.63;;;20.40;99.90;;;;;;4982311;28;20092;-71
2022/10/10 08:12:43;;;;;;;14.68;9.60;;;20.40;99.90;;;;;;5014481;28;20054;-71
2022/10/10 08:15:11;;;;;;;13.60;9.02;;;20.50;99.90;;;;;;5013630;28;20240;-71
2022/10/10 08:17:39;;;;;;;12.38;9.82;;;20.50;99.90;;;;;;5013294;28;20416;-71
2022/10/10 08:20:07;;;;;;;14.02;8.82;;;20.50;99.90;;;;;;5014224;28;20152;-71
2022/10/10 08:22:35;;;;;;;11.48;8.55;;;20.50;99.90;;;;;;4981495;28;20096;-71
2022/10/10 08:25:03;;;;;;;12.40;9.13;;;20.60;99.90;;;;;;4997793;28;20045;-72
2022/10/10 08:27:31;;;;;;;15.07;9.75;;;20.60;99.90;;;;;;4996590;28;20144;-70
2022/10/10 08:29:58;;;;;;;12.90;9.10;;;20.70;99.90;;;;;;4997324;28;20083;-70
2022/10/10 08:32:26;;;;;;;13.70;10.15;;;20.70;99.90;;;;;;5013690;28;20042;-71
2022/10/10 08:34:54;;;;;;;11.50;8.48;;;20.80;99.90;;;;;;5019481;28;20113;-71
2022/10/10 08:37:21;;;;;;;12.85;9.40;;;20.80;99.90;;;;;;4996869;28;20059;-72
2022/10/10 08:39:52;;;;;;;13.25;9.40;;;20.80;99.90;;;;;;5013724;28;20060;-72
2022/10/10 08:42:32;;;;;;;12.70;8.20;;;20.80;99.90;;;;;;5014018;28;20042;-72
2022/10/10 08:45:10;;;;;;;12.75;7.72;;;20.80;99.90;;;;;;4997793;28;20064;-71
2022/10/10 08:47:59;;;;;;;11.20;7.95;;;20.70;99.90;;;;;;5031536;28;20037;-71
2022/10/10 08:50:33;;;;;;;11.43;7.63;;;20.80;99.90;;;;;;5013906;28;20827;-71
2022/10/10 08:53:30;;;;;;;10.00;7.35;;;20.80;99.90;;;;;;4997544;28;20040;-70
2022/10/10 08:56:00;;;;;;;10.60;7.68;;;20.80;99.90;;;;;;4994793;28;20045;-71
2022/10/10 08:58:33;;;;;;;10.85;7.13;;;20.80;99.90;;;;;;5012453;28;20504;-73
2022/10/10 09:01:14;;;;;;;10.85;7.53;;;20.90;99.90;;;;;;5012753;28;20060;-71
2022/10/10 09:03:46;;;;;;;10.80;7.82;;;21.10;99.90;;;;;;4980071;28;20063;-73
2022/10/10 09:06:26;;;;;;;10.13;8.55;;;21.30;99.90;;;;;;5013005;28;20097;-72
2022/10/10 09:09:15;;;;;;;11.50;6.40;;;21.30;99.90;;;;;;4996661;28;20108;-73
2022/10/10 09:11:52;;;;;;;7.93;6.72;;;21.40;99.90;;;;;;5012410;28;20191;-72
2022/10/10 09:14:31;;;;;;;11.60;7.57;;;21.40;99.90;;;;;;4996879;28;20053;-74
2022/10/10 09:17:22;;;;;;;11.32;7.28;;;21.50;99.90;;;;;;4996438;28;20147;-73
2022/10/10 09:20:10;;;;;;;8.48;7.40;;;21.50;99.90;;;;;;5030458;28;20454;-73
2022/10/10 09:22:56;;;;;;;9.45;6.63;;;21.60;99.90;;;;;;5032051;28;20071;-75
2022/10/10 09:25:51;;;;;;;7.55;6.75;;;21.60;99.90;;;;;;5037187;28;20049;-73
2022/10/10 09:28:29;;;;;;;7.68;6.75;;;21.70;99.90;;;;;;5026192;28;20052;-73
2022/10/10 09:30:59;;;;;;;10.23;6.78;;;21.70;99.90;;;;;;5035815;28;20049;-73
2022/10/10 09:33:40;;;;;;;9.82;6.15;;;21.70;99.90;;;;;;5051762;28;20047;-73
2022/10/10 09:36:23;;;;;;;13.35;6.00;;;21.80;99.90;;;;;;5035721;28;20502;-73
2022/10/10 09:39:02;;;;;;;9.70;6.35;;;21.80;99.90;;;;;;5052534;28;20051;-73
2022/10/10 09:41:35;;;;;;;9.07;6.03;;;21.70;99.90;;;;;;5070072;28;20544;-73
2022/10/10 09:44:09;;;;;;;9.63;6.70;;;21.70;99.90;;;;;;5051799;28;20056;-74
2022/10/10 09:46:37;;;;;;;10.05;6.53;;;21.70;99.90;;;;;;5018270;28;20048;-74
2022/10/10 09:49:05;;;;;;;10.25;6.75;;;21.70;99.90;;;;;;5051572;28;20076;-74
2022/10/10 09:51:33;;;;;;;9.43;6.03;;;21.70;99.90;;;;;;5035176;28;20140;-75
2022/10/10 09:54:03;;;;;;;9.63;6.30;;;21.70;99.90;;;;;;5050934;28;20048;-75
2022/10/10 09:56:57;;;;;;;8.75;6.20;;;21.70;99.90;;;;;;5051224;28;20066;-76
2022/10/10 09:59:45;;;;;;;7.10;5.68;;;21.60;99.90;;;;;;5034561;28;20089;-74
2022/10/10 10:02:21;;;;;;;12.55;6.80;;;21.60;99.90;;;;;;5051609;28;20053;-73
2022/10/10 10:04:49;;;;;;;;;;;21.60;99.90;;;;;;5069804;28;20055;-73
2022/10/10 10:07:30;;;;;;;9.43;6.50;;;21.60;99.90;;;;;;5034415;28;19981;-74
2022/10/10 10:10:09;;;;;;;7.75;6.78;;;21.50;99.90;;;;;;5051198;28;20048;-72
2022/10/10 10:12:47;;;;;;;9.23;6.40;;;21.50;99.90;;;;;;5034297;28;20063;-71
2022/10/10 10:15:29;;;;;;;8.70;6.23;;;21.50;99.90;;;;;;5068399;28;20379;-71
2022/10/10 10:18:16;;;;;;;8.15;6.32;;;21.30;99.90;;;;;;5051294;28;20076;-71
2022/10/10 10:20:46;;;;;;;11.15;6.80;;;21.10;99.90;;;;;;5068989;28;20366;-70
2022/10/10 10:23:33;;;;;;;8.63;6.07;;;21.00;99.90;;;;;;5048715;28;20185;-74
2022/10/10 10:26:22;;;;;;;13.95;8.13;;;21.00;99.90;;;;;;5069146;28;20150;-71
2022/10/10 10:28:51;;;;;;;9.63;7.22;;;20.90;99.90;;;;;;5034951;28;20075;-70
2022/10/10 10:32:02;;;;;;;9.70;7.25;;;20.90;99.90;;;;;;5050908;28;20102;-71
2022/10/10 10:35:03;;;;;;;7.38;6.60;;;20.70;99.90;;;;;;5031795;28;20041;-72
2022/10/10 10:38:04;;;;;;;10.25;6.28;;;20.70;99.90;;;;;;5063491;28;20087;-70
2022/10/10 10:40:49;;;;;;;8.60;6.35;;;20.60;99.90;;;;;;5037951;28;20079;-73
2022/10/10 10:43:52;;;;;;;7.38;5.50;;;20.70;99.90;;;;;;5029397;28;20207;-73
2022/10/10 10:46:31;;;;;;;7.80;5.90;;;20.60;99.90;;;;;;5024079;28;20073;-73
2022/10/10 10:49:27;;;;;;;8.27;6.70;;;20.60;99.90;;;;;;5048627;28;20435;-72
2022/10/10 10:52:30;;;;;;;7.05;5.43;;;20.70;99.90;;;;;;5025788;28;20135;-70
2022/10/10 10:55:24;;;;;;;9.48;6.43;;;20.70;99.90;;;;;;5015442;28;20158;-72
2022/10/10 10:58:25;;;;;;;7.10;6.15;;;20.90;99.90;;;;;;5034552;28;20567;-71
2022/10/10 11:01:42;;;;;;;14.63;8.07;;;20.90;99.90;;;;;;5016973;28;20041;-71
2022/10/10 11:04:27;;;;;;;8.48;6.45;;;21.10;99.90;;;;;;5029833;28;20538;-77
2022/10/10 11:07:23;;;;;;;9.35;6.82;;;21.00;99.90;;;;;;5049833;28;20040;-74
2022/10/10 11:10:11;;;;;;;10.43;7.03;;;21.00;99.90;;;;;;5031123;28;20436;-72
2022/10/10 11:12:55;;;;;;;8.52;7.03;;;21.10;99.90;;;;;;5030862;28;20036;-71
2022/10/10 11:15:47;;;;;;;14.10;8.57;;;21.10;99.90;;;;;;5022661;28;20041;-72
2022/10/10 11:18:36;;;;;;;8.20;6.93;;;21.10;99.90;;;;;;5044839;28;20145;-71
2022/10/10 11:21:15;;;;;;;11.23;8.48;;;21.10;99.90;;;;;;5050270;28;20045;-81
2022/10/10 11:23:56;;;;;;;14.05;8.90;;;21.10;99.90;;;;;;5057075;28;20105;-71
2022/10/10 11:26:46;;;;;;;11.05;9.82;;;21.20;99.90;;;;;;5064211;28;20045;-72
2022/10/10 11:29:24;;;;;;;14.70;9.93;;;21.20;99.90;;;;;;5048305;28;20055;-73
2022/10/10 11:32:07;;;;;;;14.15;8.93;;;21.20;99.90;;;;;;5024323;28;20690;-71
2022/10/10 11:34:40;;;;;;;16.10;10.48;;;21.20;99.90;;;;;;5050046;28;20071;-72
2022/10/10 11:37:16;;;;;;;11.98;9.73;;;21.20;99.90;;;;;;5038692;28;20044;-71
2022/10/10 11:39:54;;;;;;;11.40;9.32;;;21.20;99.90;;;;;;5014817;28;20049;-75
2022/10/10 11:42:39;;;;;;;11.88;9.55;;;21.20;99.90;;;;;;5035521;28;20056;-70
2022/10/10 11:45:18;;;;;;;15.52;10.57;;;21.10;99.90;;;;;;5034273;28;20041;-71
2022/10/10 11:48:16;;;;;;;15.18;9.73;;;21.10;99.90;;;;;;5045882;28;20051;-71
2022/10/10 11:50:48;;;;;;;10.60;8.77;;;21.10;99.90;;;;;;5053252;28;20061;-71
2022/10/10 11:53:24;;;;;;;19.83;9.63;;;21.10;99.90;;;;;;5070727;28;20041;-72
2022/10/10 11:56:01;;;;;;;;;;;21.10;99.90;;;;;;5032345;28;20061;-71
2022/10/10 12:01:58;;;;;;;13.43;9.52;;;21.00;99.90;;;;;;5030807;28;20127;-71
2022/10/10 12:04:38;;;;;;;15.15;10.90;;;21.00;99.90;;;;;;5052157;28;20117;-75
2022/10/10 12:07:31;;;;;;;13.73;8.38;;;20.90;99.90;;;;;;5033046;28;20075;-71
2022/10/10 12:10:09;;;;;;;12.30;5.88;;;20.80;99.90;;;;;;5026349;28;20049;-72
2022/10/10 12:12:42;;;;;;;13.48;6.97;;;20.20;99.90;;;;;;5051125;28;20463;-74
2022/10/10 12:15:28;;;;;;;10.60;6.50;;;20.10;99.90;;;;;;5040961;28;20113;-70
2022/10/10 12:17:56;;;;;;;17.02;7.95;;;20.00;99.90;;;;;;5044417;28;20056;-70
2022/10/10 12:20:29;;;;;;;8.75;6.25;;;20.00;99.90;;;;;;5008754;28;20049;-70
2022/10/10 12:23:18;;;;;;;7.55;4.72;;;19.90;99.90;;;;;;4998220;28;20041;-70
2022/10/10 12:25:46;;;;;;;7.90;5.45;;;19.80;99.90;;;;;;5040440;28;20045;-69
2022/10/10 12:28:14;;;;;;;7.50;5.13;;;19.80;99.90;;;;;;5028791;28;20041;-71
2022/10/10 12:30:54;;;;;;;10.68;6.05;;;19.60;99.90;;;;;;5026308;28;20174;-77
2022/10/10 12:33:30;;;;;;;9.90;5.30;;;19.50;99.90;;;;;;5014756;28;20045;-71
2022/10/10 12:36:18;;;;;;;7.50;5.38;;;19.60;99.90;;;;;;5029957;28;20818;-72
2022/10/10 12:39:09;;;;;;;7.22;4.75;;;19.60;99.90;;;;;;4992916;28;20049;-71
2022/10/10 12:41:49;;;;;;;8.35;4.03;;;19.60;99.90;;;;;;5009169;28;20029;-72
2022/10/10 12:44:24;;;;;;;6.00;4.45;;;19.60;99.90;;;;;;5003359;28;20053;-70
2022/10/10 12:47:29;;;;;;;9.10;5.15;;;19.60;99.90;;;;;;5020759;28;20071;-70
2022/10/10 12:50:21;;;;;;;8.15;5.50;;;19.60;99.90;;;;;;4976770;28;20787;-76
2022/10/10 12:52:54;;;;;;;8.80;4.70;;;19.70;99.90;;;;;;4997942;28;20049;-70
2022/10/10 12:55:31;;;;;;;11.75;6.45;;;19.70;99.90;;;;;;5028161;28;20041;-70
2022/10/10 12:58:02;;;;;;;8.82;6.35;;;19.70;99.90;;;;;;4987911;28;20188;-71
2022/10/10 13:00:40;;;;;;;7.57;5.50;;;19.80;99.90;;;;;;5047175;28;20080;-71
2022/10/10 13:03:31;;;;;;;10.35;6.22;;;19.80;99.90;;;;;;5039264;28;20045;-72
2022/10/10 13:06:05;;;;;;;11.63;7.45;;;19.80;99.90;;;;;;5011413;28;20053;-71
2022/10/10 13:08:36;;;;;;;14.13;7.00;;;19.70;99.90;;;;;;4994834;28;20056;-72
2022/10/10 13:11:07;;;;;;;10.82;5.25;;;19.60;99.90;;;;;;5013147;28;20049;-80
2022/10/10 13:13:37;;;;;;;9.30;5.25;;;19.30;99.90;;;;;;4988825;28;20137;-70
2022/10/10 13:16:17;;;;;;;13.52;6.85;;;19.20;99.90;;;;;;5010404;28;20049;-70